Latest Weather Observations for Jandakot

IDW60901

Issued at 11:51 am WST Tuesday 29 September 2020 (issued every 10 minutes, with the page automatically refreshed every 10 minutes)

About weather observations | Map of Perth area stations | Latest observations for Perth area | Other Formats
Station Details ID: 009172 Name: JANDAKOT AERO Lat: -32.10 Lon: 115.88 Height: 30.0 m
Data from the previous 72 hours. | See also: Recent months at Jandakot
Date/Time
WST
Temp
°C
App
Temp
°C
Dew
Point
°C
Rel
Hum
%
Delta-T
°C
Wind Press
QNH
hPa
Press
MSL
hPa
Rain since
9am
mm
Dir  Spd
km/h
Gust
km/h
Spd
kts
Gust
kts
29/11:30am 19.7 16.3 12.5 63 4.0 NW 22 30 12 16 1019.2 1019.2 0.0
29/11:00am 18.6 14.8 12.4 67 3.4 WNW 24 32 13 17 1019.5 1019.5 0.0
29/10:30am 18.6 16.3 13.0 70 3.2 NW 17 26 9 14 1019.7 1019.7 0.0
29/10:00am 18.6 15.2 11.4 63 3.9 NW 20 26 11 14 1019.7 1019.7 0.0
29/09:30am 17.7 16.3 13.4 76 2.4 NNW 13 17 7 9 1019.8 1019.8 0.0
29/09:00am 16.9 15.4 13.2 79 2.1 NNE 13 19 7 10 1019.8 1019.8 0.2
29/08:30am 15.5 13.9 12.8 84 1.5 NNE 13 17 7 9 1019.9 1019.9 0.2
29/08:00am 14.5 12.9 12.9 90 0.9 NNE 13 17 7 9 1019.8 1019.8 0.2
29/07:30am 12.6 11.1 12.0 96 0.3 NNE 11 13 6 7 1019.5 1019.5 0.2
29/07:00am 12.0 10.5 11.8 99 0.1 NNE 11 13 6 7 1019.3 1019.3 0.2
29/06:30am 11.3 9.9 11.0 98 0.2 NNE 9 11 5 6 1019.1 1019.1 0.2
29/06:00am 10.6 9.1 10.6 100 0.0 NNE 9 11 5 6 1019.1 1019.1 0.2
29/05:30am 10.6 9.5 10.6 100 0.0 NNE 7 9 4 5 1018.7 1018.7 0.2
29/05:00am 10.5 9.0 10.5 100 0.0 NNE 9 13 5 7 1018.3 1018.3 0.2
29/04:30am 9.0 7.1 9.0 100 0.0 NNE 9 11 5 6 1017.8 1017.8 0.2
29/04:00am 9.1 7.2 9.1 100 0.0 NE 9 13 5 7 1017.6 1017.6 0.2
29/03:30am 8.9 7.0 8.9 100 0.0 NNE 9 11 5 6 1017.8 1017.8 0.2
29/03:00am 8.7 6.7 8.7 100 0.0 NNE 9 11 5 6 1018.0 1018.0 0.2
29/02:30am 8.6 8.3 8.6 100 0.0 CALM 0 0 0 0 1018.1 1018.1 0.2
29/02:06am 8.1 7.7 8.1 100 0.0 CALM 0 0 0 0 1018.3 1018.3 0.2
29/02:00am 7.7 7.2 7.7 100 0.0 CALM 0 0 0 0 1018.5 1018.5 0.2
29/01:45am 9.1 8.9 9.1 100 0.0 CALM 0 0 0 0 1018.8 1018.8 0.2
29/01:30am 9.2 9.0 9.2 100 0.0 CALM 0 0 0 0 1019.0 1019.0 0.2
29/01:00am 9.2 9.0 9.2 100 0.0 CALM 0 0 0 0 1019.1 1019.1 0.2
29/12:30am 9.4 9.3 9.4 100 0.0 CALM 0 0 0 0 1019.2 1019.2 0.2
29/12:00am 9.8 9.8 9.8 100 0.0 CALM 0 0 0 0 1019.3 1019.3 0.2
 
Date/Time
WST
Temp
°C
App
Temp
°C
Dew
Point
°C
Rel
Hum
%
Delta-T
°C
Wind Press
QNH
hPa
Press
MSL
hPa
Rain since
9am
mm
Dir  Spd
km/h
Gust
km/h
Spd
kts
Gust
kts
28/11:30pm 9.7 9.6 9.4 98 0.1 CALM 0 0 0 0 1019.5 1019.5 0.2
28/11:00pm 10.2 10.2 9.9 98 0.2 CALM 0 0 0 0 1019.7 1019.7 0.2
28/10:30pm 10.1 10.0 9.5 96 0.3 CALM 0 0 0 0 1019.6 1019.6 0.2
28/10:00pm 10.7 10.8 10.1 96 0.3 CALM 0 0 0 0 1019.9 1019.9 0.2
28/09:30pm 11.7 10.5 10.3 91 0.7 W 7 9 4 5 1020.1 1020.1 0.2
28/09:00pm 11.9 10.8 10.5 91 0.7 W 7 9 4 5 1019.8 1019.8 0.2
28/08:30pm 13.2 12.1 10.7 85 1.3 W 7 9 4 5 1019.8 1019.8 0.2
28/08:00pm 13.7 12.7 11.0 84 1.4 W 7 9 4 5 1019.8 1019.8 0.2
28/07:30pm 14.7 13.7 10.9 78 2.0 WSW 7 9 4 5 1019.4 1019.4 0.2
28/07:00pm 14.9 13.4 10.7 76 2.2 WSW 9 15 5 8 1019.3 1019.3 0.2
28/06:30pm 15.9 13.5 10.2 69 3.0 WSW 13 17 7 9 1018.8 1018.8 0.2
28/06:00pm 16.6 13.5 10.2 66 3.4 WSW 17 24 9 13 1018.6 1018.6 0.2
28/05:30pm 17.4 13.6 9.8 61 4.0 WSW 20 26 11 14 1018.5 1018.5 0.2
28/05:00pm 17.9 13.5 9.0 56 4.6 WSW 22 30 12 16 1018.2 1018.2 0.2
28/04:30pm 18.3 13.6 9.1 55 4.8 WSW 24 33 13 18 1018.0 1018.0 0.2
28/04:00pm 18.9 14.2 10.7 59 4.4 WSW 26 35 14 19 1017.8 1017.8 0.2
28/03:30pm 19.1 14.3 11.7 62 4.1 SW 28 35 15 19 1017.5 1017.5 0.2
28/03:00pm 19.4 15.1 12.2 63 4.0 WSW 26 35 14 19 1017.4 1017.4 0.2
28/02:30pm 20.0 17.2 14.4 70 3.3 SW 22 32 12 17 1017.3 1017.3 0.2
28/02:00pm 19.6 16.6 13.8 69 3.3 WSW 22 30 12 16 1017.4 1017.4 0.2
28/01:30pm 18.9 15.1 13.7 72 3.0 WSW 26 35 14 19 1017.4 1017.4 0.2
28/01:00pm 18.2 17.4 17.0 93 0.7 WSW 17 26 9 14 1017.6 1017.6 0.2
28/12:30pm 19.4 16.6 13.3 68 3.5 WSW 20 33 11 18 1017.8 1017.8 0.0
28/12:00pm 19.2 16.2 14.7 75 2.6 SW 24 32 13 17 1017.9 1017.9 0.0
28/11:30am 19.2 17.1 16.2 83 1.8 WSW 22 28 12 15 1017.9 1017.9 0.0
28/11:00am 17.8 16.2 14.9 83 1.7 WSW 17 22 9 12 1018.0 1018.0 0.0
28/10:54am 18.1 17.3 15.2 83 1.7 WSW 13 20 7 11 1018.0 1018.0 0.0
28/10:30am 18.6 17.4 16.2 86 1.4 N 17 20 9 11 1018.2 1018.2 0.0
28/10:25am 17.9 16.4 15.3 85 1.5 N 17 20 9 11 1018.2 1018.2 0.0
28/10:12am 17.8 17.4 15.2 85 1.5 N 11 19 6 10 1018.1 1018.1 0.0
28/10:00am 17.2 17.7 15.5 90 1.0 NNW 7 15 4 8 1018.3 1018.3 0.0
28/09:56am 16.7 17.1 15.2 91 0.9 NNW 7 11 4 6 1018.3 1018.3 0.0
28/09:30am 16.1 15.6 15.0 93 0.6 NNE 11 15 6 8 1018.1 1018.1 0.0
28/09:25am 16.0 15.1 14.9 93 0.6 NNE 13 19 7 10 1018.1 1018.1 0.0
28/09:00am 15.5 14.6 14.9 96 0.3 NNE 13 17 7 9 1018.0 1018.0 3.0
28/08:45am 15.2 15.1 15.0 99 0.1 NNE 9 15 5 8 1018.2 1018.2 3.0
28/08:30am 14.9 14.0 14.9 100 0.0 N 13 19 7 10 1018.2 1018.2 3.0
28/08:00am 14.1 12.6 14.1 100 0.0 NNE 15 20 8 11 1017.7 1017.7 3.0
28/07:30am 13.9 11.5 13.9 100 0.0 N 19 22 10 12 1017.4 1017.4 3.0
28/07:00am 13.3 11.9 13.3 100 0.0 NNE 13 17 7 9 1017.3 1017.3 3.0
28/06:30am 13.0 12.6 13.0 100 0.0 NNE 7 11 4 6 1017.1 1017.1 3.0
28/06:00am 12.5 10.8 12.5 100 0.0 NNE 13 15 7 8 1016.9 1016.9 3.0
28/05:30am 12.7 11.5 12.7 100 0.0 NE 11 13 6 7 1016.6 1016.6 3.0
28/05:00am 12.9 11.7 12.9 100 0.0 NE 11 13 6 7 1016.3 1016.3 3.0
28/04:51am 12.9 12.1 12.9 100 0.0 NE 9 11 5 6 1016.2 1016.2 3.0
28/04:30am 13.0 13.9 13.0 100 0.0 CALM 0 0 0 0 1016.4 1016.4 2.8
28/04:16am 13.0 13.9 13.0 100 0.0 CALM 0 0 0 0 1016.4 1016.4 2.4
28/04:00am 13.1 14.1 13.1 100 0.0 CALM 0 0 0 0 1016.2 1016.2 2.4
28/03:52am 13.1 14.1 13.1 100 0.0 CALM 0 0 0 0 1016.2 1016.2 2.4
28/03:38am 13.1 14.1 13.1 100 0.0 CALM 0 0 0 0 1016.2 1016.2 2.2
28/03:30am 13.0 13.9 13.0 100 0.0 CALM 0 2 0 1 1016.1 1016.1 1.6
28/03:00am 12.9 12.1 12.9 100 0.0 NNE 9 13 5 7 1016.2 1016.2 0.8
28/02:30am 12.0 10.9 12.0 100 0.0 NNE 9 11 5 6 1016.1 1016.1 0.8
28/02:00am 12.6 11.7 12.6 100 0.0 NE 9 13 5 7 1016.3 1016.3 0.8
28/01:30am 12.2 12.1 12.2 100 0.0 NE 4 9 2 5 1016.5 1016.5 0.8
28/01:00am 12.5 13.3 12.5 100 0.0 CALM 0 0 0 0 1016.7 1016.7 0.8
28/12:30am 13.2 14.2 13.2 100 0.0 CALM 0 0 0 0 1016.9 1016.9 0.8
28/12:00am 13.0 13.9 13.0 100 0.0 CALM 0 4 0 2 1016.9 1016.9 0.8
 
Date/Time
WST
Temp
°C
App
Temp
°C
Dew
Point
°C
Rel
Hum
%
Delta-T
°C
Wind Press
QNH
hPa
Press
MSL
hPa
Rain since
9am
mm
Dir  Spd
km/h
Gust
km/h
Spd
kts
Gust
kts
27/11:30pm 12.4 11.8 12.4 100 0.0 NNE 7 9 4 5 1017.2 1017.2 0.8
27/11:00pm 12.9 13.8 12.9 100 0.0 CALM 0 0 0 0 1017.4 1017.4 0.8
27/10:30pm 13.3 14.3 13.3 100 0.0 CALM 0 0 0 0 1017.4 1017.4 0.8
27/10:00pm 12.9 12.7 12.9 100 0.0 NNE 6 7 3 4 1017.4 1017.4 0.8
27/09:30pm 13.1 12.7 13.1 100 0.0 NNE 7 9 4 5 1017.4 1017.4 0.8
27/09:00pm 13.4 12.7 13.1 98 0.2 NE 9 11 5 6 1017.3 1017.3 0.8
27/08:30pm 13.7 13.1 13.5 99 0.1 NE 9 11 5 6 1017.2 1017.2 0.8
27/08:00pm 14.5 14.1 14.0 97 0.3 E 9 13 5 7 1017.2 1017.2 0.8
27/07:30pm 15.3 15.7 14.7 96 0.3 ESE 6 7 3 4 1017.1 1017.1 0.6
27/07:00pm 15.6 17.1 14.6 94 0.6 CALM 0 0 0 0 1016.7 1016.7 0.6
27/06:30pm 15.7 15.9 14.2 91 0.9 SSW 6 7 3 4 1016.5 1016.5 0.6
27/06:00pm 15.7 14.6 14.4 92 0.7 SW 13 17 7 9 1016.5 1016.5 0.6
27/05:30pm 15.7 14.9 15.1 96 0.3 W 13 19 7 10 1016.6 1016.6 0.6
27/05:00pm 17.3 13.9 13.6 79 2.1 W 24 33 13 18 1016.3 1016.3 0.0
27/04:30pm 18.7 15.3 11.3 62 4.0 WNW 20 24 11 13 1016.1 1016.1 0.0
27/04:00pm 19.6 17.1 11.1 58 4.6 NW 15 20 8 11 1015.9 1015.9 0.0
27/03:30pm 18.8 15.8 12.1 65 3.7 NNW 19 24 10 13 1016.0 1016.0 0.0
27/03:00pm 18.0 14.0 13.1 73 2.8 NNW 26 32 14 17 1016.2 1016.2 0.0
27/02:30pm 19.3 15.9 11.3 60 4.4 NW 20 28 11 15 1016.2 1016.2 0.0
27/02:00pm 20.1 18.0 11.3 57 4.8 WNW 13 20 7 11 1016.3 1016.3 0.0
27/01:30pm 19.5 17.1 10.0 54 5.1 W 13 19 7 10 1016.5 1016.5 0.0
27/01:00pm 19.2 15.3 9.4 53 5.2 W 20 24 11 13 1016.6 1016.6 0.0
27/12:30pm 19.5 16.5 9.1 51 5.5 WNW 15 26 8 14 1016.7 1016.7 0.0
27/12:00pm 20.0 17.3 10.4 54 5.2 WSW 15 22 8 12 1016.9 1016.9 0.0
27/11:30am 20.2 16.7 10.9 55 5.1 W 20 28 11 15 1017.1 1017.1 0.0
27/11:00am 18.9 15.8 10.2 57 4.7 W 17 20 9 11 1017.1 1017.1 0.0
27/10:30am 19.2 17.4 10.7 58 4.6 WNW 11 20 6 11 1017.1 1017.1 0.0
27/10:00am 18.8 16.7 11.1 61 4.2 W 13 19 7 10 1017.3 1017.3 0.0
27/09:30am 18.5 18.7 12.9 70 3.1 NNE 4 9 2 5 1017.1 1017.1 0.0
27/09:00am 17.0 16.6 12.5 75 2.5 N 6 11 3 6 1017.1 1017.1 5.2
27/08:30am 15.3 14.5 12.8 85 1.4 NE 9 11 5 6 1017.0 1017.0 5.2
27/08:00am 13.8 12.5 12.5 92 0.7 NNE 11 13 6 7 1017.1 1017.1 5.2
27/07:30am 12.6 10.9 12.6 100 0.0 NNE 13 17 7 9 1017.0 1017.0 5.2
27/07:00am 11.2 - - - - NNE 4 11 2 6 1016.5 1016.5 5.2
27/06:30am 9.5 9.4 9.5 100 0.0 CALM 0 0 0 0 1016.3 1016.3 5.2
27/06:00am 9.4 - - - - CALM 0 0 0 0 1015.9 1015.9 5.2
27/05:57am 9.5 - - - - CALM 0 0 0 0 1015.8 1015.8 5.2
27/05:30am 9.4 8.2 9.4 100 0.0 NE 6 7 3 4 1015.6 1015.6 5.2
27/05:00am 8.8 6.8 8.8 100 0.0 NNE 9 11 5 6 1015.3 1015.3 5.2
27/04:30am 9.3 7.5 9.3 100 0.0 NNE 9 11 5 6 1015.1 1015.1 5.2
27/04:00am 9.1 7.6 9.1 100 0.0 NE 7 9 4 5 1014.9 1014.9 5.2
27/03:30am 9.5 8.1 9.5 100 0.0 NE 7 9 4 5 1014.7 1014.7 5.2
27/03:00am 10.1 9.0 10.1 100 0.0 NE 6 7 3 4 1014.7 1014.7 5.2
27/02:40am 10.3 9.1 10.3 100 0.0 NE 7 7 4 4 1014.5 1014.5 5.2
27/02:30am 10.3 8.7 10.3 100 0.0 NE 9 11 5 6 1014.6 1014.6 5.2
27/02:00am 11.0 10.0 11.0 100 0.0 NNE 7 9 4 5 1014.6 1014.6 5.2
27/01:30am 11.1 9.8 11.1 100 0.0 NNE 9 11 5 6 1014.7 1014.7 5.2
27/01:11am 10.8 11.1 10.8 100 0.0 CALM 0 0 0 0 1014.7 1014.7 5.2
27/01:00am 11.1 11.5 11.1 100 0.0 CALM 0 0 0 0 1014.7 1014.7 5.2
27/12:50am 11.2 11.6 11.2 100 0.0 CALM 0 0 0 0 1014.7 1014.7 5.2
27/12:30am 11.1 10.3 11.1 100 0.0 NNE 6 11 3 6 1014.9 1014.9 5.2
27/12:00am 11.4 11.8 11.4 100 0.0 CALM 0 0 0 0 1014.9 1014.9 5.2
 
Date/Time
WST
Temp
°C
App
Temp
°C
Dew
Point
°C
Rel
Hum
%
Delta-T
°C
Wind Press
QNH
hPa
Press
MSL
hPa
Rain since
9am
mm
Dir  Spd
km/h
Gust
km/h
Spd
kts
Gust
kts
26/11:30pm 10.8 11.1 10.8 100 0.0 CALM 0 0 0 0 1014.8 1014.8 5.2
26/11:00pm 11.5 12.0 11.5 100 0.0 CALM 0 0 0 0 1014.9 1014.9 5.2
26/10:30pm 11.3 11.7 11.3 100 0.0 CALM 0 0 0 0 1015.0 1015.0 5.2
26/10:00pm 11.2 11.6 11.2 100 0.0 CALM 0 0 0 0 1015.1 1015.1 5.0
26/09:30pm 10.9 10.1 10.9 100 0.0 WSW 6 7 3 4 1015.1 1015.1 5.0
26/09:00pm 11.4 10.5 11.4 100 0.0 WSW 7 9 4 5 1015.0 1015.0 5.0
26/08:30pm 11.6 11.0 11.6 100 0.0 WSW 6 9 3 5 1014.9 1014.9 5.0
26/08:00pm 12.4 13.1 12.1 98 0.2 CALM 0 0 0 0 1014.6 1014.6 5.0
26/07:30pm 13.8 14.7 13.0 95 0.4 CALM 0 0 0 0 1014.3 1014.3 5.0
26/07:00pm 14.2 14.0 12.9 92 0.7 WSW 6 6 3 3 1013.9 1013.9 5.0
26/06:30pm 14.4 13.5 12.6 89 1.0 WSW 9 11 5 6 1013.7 1013.7 5.0
26/06:00pm 15.2 13.6 12.7 85 1.4 WSW 13 17 7 9 1013.2 1013.2 5.0
26/05:30pm 15.7 13.8 13.0 84 1.5 WSW 15 20 8 11 1012.8 1012.8 5.0
26/05:00pm 16.0 14.5 13.1 83 1.6 WSW 13 24 7 13 1012.4 1012.4 5.0
26/04:30pm 15.7 13.6 13.7 88 1.1 SSW 17 24 9 13 1012.1 1012.1 5.0
26/04:00pm 16.2 13.5 14.7 91 0.9 SW 22 30 12 16 1011.8 1011.8 5.0
26/03:32pm 15.4 12.7 14.6 95 0.5 W 22 30 12 16 1011.5 1011.5 5.0
26/03:30pm 15.1 11.8 14.1 94 0.6 W 24 41 13 22 1011.5 1011.5 5.0
26/03:03pm 16.3 14.2 14.8 91 0.9 NW 19 24 10 13 1011.3 1011.3 3.4
26/03:00pm 16.2 14.2 14.9 92 0.8 NW 19 22 10 12 1011.2 1011.2 3.4
26/02:30pm 15.7 14.4 14.9 95 0.5 WNW 15 22 8 12 1011.1 1011.1 3.0
26/02:00pm 16.7 14.2 15.2 91 0.9 WNW 22 32 12 17 1011.5 1011.5 1.8
26/01:30pm 17.6 14.0 14.3 81 1.9 NW 26 35 14 19 1011.5 1011.5 0.2
26/01:00pm 20.0 16.4 11.8 59 4.6 NW 22 30 12 16 1011.0 1011.0 0.0
26/12:30pm 20.8 17.5 10.9 53 5.4 NW 19 26 10 14 1011.3 1011.3 0.0
26/12:00pm 21.1 18.8 10.3 50 5.9 WNW 13 20 7 11 1011.8 1011.8 0.0

Latest Capital City Observations: Canberra | Sydney | Melbourne | Brisbane | Adelaide | Perth | Hobart | Darwin

Other formats

Comma delimited format used in spreadsheet applications
http://www.bom.gov.au/fwo/IDW60901/IDW60901.94609.axf

JavaScript Object Notation format (JSON) in row-major order
http://www.bom.gov.au/fwo/IDW60901/IDW60901.94609.json

Data quality

Most of these data are generated automatically and are frequently updated. Quality checks on data are not normally performed. It is possible for incorrect values to appear. Refer to information at About Latest Weather Observations and please check the disclaimer before using these data.